createdAt,value
2023-04-07T00:01:43.108Z,44.13
2023-04-07T00:04:16.334Z,43.95
2023-04-07T00:06:51.752Z,43.69
2023-04-07T00:09:26.438Z,43.80
2023-04-07T00:11:59.202Z,44.10
2023-04-07T00:14:31.957Z,44.09
2023-04-07T00:17:04.436Z,43.91
2023-04-07T00:19:37.630Z,44.13
2023-04-07T00:22:10.246Z,44.26
2023-04-07T00:24:44.758Z,43.96
2023-04-07T00:27:17.701Z,44.35
2023-04-07T00:29:50.828Z,44.34
2023-04-07T00:32:23.401Z,43.99
2023-04-07T00:34:56.403Z,44.41
2023-04-07T00:37:29.152Z,44.80
2023-04-07T00:40:04.662Z,44.93
2023-04-07T00:42:37.628Z,44.61
2023-04-07T00:45:11.629Z,44.58
2023-04-07T00:47:44.936Z,44.37
2023-04-07T00:50:19.232Z,44.81
2023-04-07T00:52:54.778Z,44.32
2023-04-07T00:55:30.127Z,44.35
2023-04-07T00:58:03.157Z,44.61
2023-04-07T01:00:42.409Z,45.23
2023-04-07T01:03:20.334Z,44.59
2023-04-07T01:05:58.371Z,45.11
2023-04-07T01:08:39.137Z,44.92
2023-04-07T01:11:21.420Z,44.56
2023-04-07T01:13:55.305Z,44.16
2023-04-07T01:16:41.981Z,44.71
2023-04-07T01:19:26.606Z,44.61
2023-04-07T01:22:08.248Z,45.17
2023-04-07T01:25:02.924Z,45.24
2023-04-07T01:27:44.397Z,44.96
2023-04-07T01:30:19.914Z,45.08
2023-04-07T01:32:53.750Z,45.18
2023-04-07T01:35:28.554Z,44.54
2023-04-07T01:38:03.307Z,44.45
2023-04-07T01:40:37.744Z,45.33
2023-04-07T01:43:12.059Z,45.23
2023-04-07T01:45:47.456Z,45.27
2023-04-07T01:48:20.644Z,45.21
2023-04-07T01:50:54.040Z,44.48
2023-04-07T01:53:27.520Z,44.71
2023-04-07T01:56:00.956Z,45.04
2023-04-07T01:58:35.322Z,45.25
2023-04-07T02:01:12.261Z,45.01
2023-04-07T02:03:54.899Z,44.59
2023-04-07T02:06:31.935Z,45.33
2023-04-07T02:09:08.451Z,45.94
2023-04-07T02:11:44.028Z,45.11
2023-04-07T02:14:18.337Z,45.46
2023-04-07T02:17:07.640Z,45.77
2023-04-07T02:19:41.760Z,45.07
2023-04-07T02:22:16.684Z,45.91
2023-04-07T02:24:50.072Z,45.28
2023-04-07T02:27:22.548Z,45.59
2023-04-07T02:29:55.853Z,46.14
2023-04-07T02:32:30.502Z,46.05
2023-04-07T02:35:04.026Z,45.86
2023-04-07T02:37:36.979Z,45.95
2023-04-07T02:40:10.301Z,45.56
2023-04-07T02:42:43.337Z,46.01
2023-04-07T02:45:16.577Z,45.99
2023-04-07T02:47:50.927Z,45.36
2023-04-07T02:50:26.188Z,46.18
2023-04-07T02:52:58.978Z,46.13
2023-04-07T02:55:31.873Z,46.80
2023-04-07T02:58:07.454Z,46.03
2023-04-07T03:00:46.896Z,46.26
2023-04-07T03:03:26.986Z,46.55
2023-04-07T03:06:27.187Z,46.24
2023-04-07T03:09:32.504Z,45.70
2023-04-07T03:12:05.372Z,46.45
2023-04-07T03:14:41.997Z,46.36
2023-04-07T03:17:16.262Z,47.04
2023-04-07T03:19:52.388Z,46.80
2023-04-07T03:22:25.824Z,46.31
2023-04-07T03:25:00.165Z,46.90
2023-04-07T03:27:32.835Z,46.16
2023-04-07T03:30:08.440Z,46.95
2023-04-07T03:32:41.341Z,46.98
2023-04-07T03:35:17.874Z,47.09
2023-04-07T03:37:51.066Z,46.29
2023-04-07T03:40:24.721Z,46.88
2023-04-07T03:42:57.343Z,46.96
2023-04-07T03:45:30.199Z,46.61
2023-04-07T03:48:02.763Z,46.82
2023-04-07T03:50:38.299Z,46.41
2023-04-07T03:53:19.818Z,46.88
2023-04-07T03:55:53.315Z,46.27
2023-04-07T03:58:46.770Z,46.25
2023-04-07T04:01:25.068Z,47.28
2023-04-07T04:03:58.027Z,46.42
2023-04-07T04:06:37.691Z,46.28
2023-04-07T04:09:27.009Z,46.78
2023-04-07T04:12:01.751Z,46.22
2023-04-07T04:14:36.651Z,46.20
2023-04-07T04:17:10.256Z,46.29
2023-04-07T04:19:48.153Z,46.08
2023-04-07T04:22:30.597Z,46.13
2023-04-07T04:25:05.657Z,45.57
2023-04-07T04:27:38.471Z,45.89
2023-04-07T04:30:18.987Z,46.37
2023-04-07T04:32:57.393Z,45.25
2023-04-07T04:35:38.891Z,45.82
2023-04-07T04:38:19.314Z,46.45
2023-04-07T04:40:58.812Z,45.21
2023-04-07T04:43:36.650Z,45.62
2023-04-07T04:46:11.320Z,46.16
2023-04-07T04:48:48.047Z,45.91
2023-04-07T04:51:23.465Z,45.17
2023-04-07T04:54:04.504Z,45.04
2023-04-07T04:56:39.204Z,44.99
2023-04-07T04:59:12.143Z,45.10
2023-04-07T05:01:58.828Z,45.03
2023-04-07T05:04:32.613Z,45.02
2023-04-07T05:07:28.133Z,44.72
2023-04-07T05:10:03.485Z,44.76
2023-04-07T05:12:38.615Z,44.66
2023-04-07T05:15:12.353Z,44.34
2023-04-07T05:17:50.579Z,43.59
2023-04-07T05:20:29.154Z,44.39
2023-04-07T05:23:02.424Z,43.38
2023-04-07T05:25:40.486Z,43.68
2023-04-07T05:28:14.110Z,42.92
2023-04-07T05:30:47.216Z,42.54
2023-04-07T05:33:19.974Z,42.38
2023-04-07T05:35:56.769Z,41.90
2023-04-07T05:38:29.274Z,42.78
2023-04-07T05:41:07.636Z,42.37
2023-04-07T05:43:42.255Z,42.56
2023-04-07T05:46:16.258Z,42.96
2023-04-07T05:48:59.166Z,43.27
2023-04-07T05:51:36.551Z,43.79
2023-04-07T05:54:15.366Z,43.73
2023-04-07T05:56:50.129Z,44.01
2023-04-07T05:59:23.624Z,43.90
2023-04-07T06:01:58.397Z,44.22
2023-04-07T06:04:32.985Z,44.03
2023-04-07T06:07:06.577Z,44.17
2023-04-07T06:09:39.441Z,43.93
2023-04-07T06:12:17.237Z,43.52
2023-04-07T06:14:53.778Z,43.82
2023-04-07T06:17:28.236Z,43.99
2023-04-07T06:20:01.124Z,43.65
2023-04-07T06:22:34.881Z,43.67
2023-04-07T06:25:08.407Z,43.55
2023-04-07T06:27:42.730Z,43.56
2023-04-07T06:30:16.321Z,43.03
2023-04-07T06:32:49.222Z,42.92
2023-04-07T06:35:22.483Z,42.60
2023-04-07T06:37:56.425Z,42.85
2023-04-07T06:40:28.834Z,42.22
2023-04-07T06:43:04.256Z,42.36
2023-04-07T06:45:46.424Z,42.11
2023-04-07T06:48:19.562Z,42.15
2023-04-07T06:50:52.346Z,41.73
2023-04-07T06:53:25.238Z,41.11
2023-04-07T06:56:05.800Z,40.98
2023-04-07T06:58:41.013Z,40.95
2023-04-07T07:01:13.609Z,41.39
2023-04-07T07:03:47.017Z,41.08
2023-04-07T07:06:20.132Z,41.18
2023-04-07T07:08:53.437Z,40.83
2023-04-07T07:11:25.974Z,41.26
2023-04-07T07:14:00.350Z,40.90
2023-04-07T07:16:32.858Z,41.29
2023-04-07T07:19:05.726Z,41.51
2023-04-07T07:21:39.170Z,40.92
2023-04-07T07:24:11.750Z,41.48
2023-04-07T07:26:45.206Z,41.63
2023-04-07T07:29:20.433Z,41.62
2023-04-07T07:31:54.472Z,41.99
2023-04-07T07:34:28.355Z,41.83
2023-04-07T07:37:00.923Z,42.35
2023-04-07T07:39:33.832Z,41.82
2023-04-07T07:42:06.698Z,41.88
2023-04-07T07:44:41.328Z,41.77
2023-04-07T07:47:13.877Z,42.28
2023-04-07T07:49:47.261Z,42.13
2023-04-07T07:52:20.994Z,42.73
2023-04-07T07:54:53.860Z,41.83
2023-04-07T07:57:26.428Z,42.28
2023-04-07T08:00:01.022Z,42.63
2023-04-07T08:02:34.357Z,41.96
2023-04-07T08:05:08.237Z,41.89
2023-04-07T08:07:43.244Z,42.00
2023-04-07T08:10:16.697Z,42.12
2023-04-07T08:12:49.212Z,42.38
2023-04-07T08:15:23.860Z,42.29
2023-04-07T08:17:56.607Z,42.14
2023-04-07T08:20:30.025Z,42.52
2023-04-07T08:23:02.577Z,42.68
2023-04-07T08:25:35.769Z,43.14
2023-04-07T08:28:09.002Z,42.95
2023-04-07T08:30:42.884Z,42.49
2023-04-07T08:33:16.050Z,42.95
2023-04-07T08:35:48.476Z,42.45
2023-04-07T08:38:21.399Z,42.67
2023-04-07T08:40:59.759Z,42.60
2023-04-07T08:43:34.423Z,42.15
2023-04-07T08:46:10.146Z,42.25
2023-04-07T08:48:45.412Z,42.38
2023-04-07T08:51:27.541Z,42.63
2023-04-07T08:54:06.097Z,42.43
2023-04-07T08:56:41.037Z,42.36
2023-04-07T08:59:16.206Z,42.87
2023-04-07T09:01:51.693Z,42.73
2023-04-07T09:04:25.437Z,42.28
2023-04-07T09:06:58.341Z,42.57
2023-04-07T09:09:31.594Z,42.26
2023-04-07T09:12:04.512Z,41.84
2023-04-07T09:14:37.617Z,41.92
2023-04-07T09:17:11.580Z,42.03
2023-04-07T09:19:44.923Z,41.88
2023-04-07T09:22:35.714Z,43.08
2023-04-07T09:25:17.092Z,42.31
2023-04-07T09:28:01.175Z,41.89
2023-04-07T09:30:34.485Z,42.03
2023-04-07T09:33:15.468Z,41.99
2023-04-07T09:35:54.969Z,41.88
2023-04-07T09:38:34.760Z,41.55
2023-04-07T09:41:09.519Z,41.53
2023-04-07T09:43:45.016Z,41.50
2023-04-07T09:46:19.544Z,41.43
2023-04-07T09:49:05.838Z,41.18
2023-04-07T09:51:38.515Z,41.23
2023-04-07T09:54:11.936Z,41.08
2023-04-07T09:56:46.111Z,40.95
2023-04-07T09:59:18.800Z,40.78
2023-04-07T10:01:53.843Z,40.39
2023-04-07T10:04:29.647Z,40.47
2023-04-07T10:07:04.529Z,40.34
2023-04-07T10:09:37.296Z,40.33
2023-04-07T10:12:10.348Z,40.41
2023-04-07T10:14:47.201Z,39.80
2023-04-07T10:17:24.424Z,40.53
2023-04-07T10:19:59.516Z,40.98
2023-04-07T10:22:33.427Z,40.07
2023-04-07T10:25:10.367Z,39.37
2023-04-07T10:27:51.904Z,39.13
2023-04-07T10:30:27.738Z,39.46
2023-04-07T10:33:00.442Z,39.76
2023-04-07T10:36:06.439Z,39.58
2023-04-07T10:38:39.534Z,38.85
2023-04-07T10:41:39.585Z,39.51
2023-04-07T10:44:49.889Z,39.53
2023-04-07T10:47:22.604Z,39.27
2023-04-07T10:50:18.163Z,39.40
2023-04-07T10:53:08.753Z,39.28
2023-04-07T10:55:43.047Z,39.38
2023-04-07T10:58:21.979Z,39.00
2023-04-07T11:01:20.000Z,39.61
2023-04-07T11:04:00.719Z,38.37
2023-04-07T11:06:34.626Z,39.05
2023-04-07T11:09:21.104Z,38.78
2023-04-07T11:11:53.815Z,38.39
2023-04-07T11:14:27.453Z,37.57
2023-04-07T11:17:03.682Z,37.73
2023-04-07T11:19:51.238Z,37.66
2023-04-07T11:22:29.984Z,37.13
2023-04-07T11:25:20.309Z,37.03
2023-04-07T11:27:53.502Z,37.83
2023-04-07T11:30:26.868Z,37.68
2023-04-07T11:33:00.172Z,37.44
2023-04-07T11:35:32.697Z,37.11
2023-04-07T11:38:05.726Z,37.11
2023-04-07T11:40:40.045Z,37.24
2023-04-07T11:43:18.470Z,37.05
2023-04-07T11:46:07.520Z,37.51
2023-04-07T11:48:42.034Z,36.95
2023-04-07T11:51:18.730Z,37.22
2023-04-07T11:53:57.256Z,36.75
2023-04-07T11:56:41.661Z,37.19
2023-04-07T11:59:23.269Z,37.75
2023-04-07T12:01:58.129Z,37.22
2023-04-07T12:04:32.044Z,37.32
2023-04-07T12:07:09.376Z,36.98
2023-04-07T12:09:42.244Z,37.16
2023-04-07T12:12:27.381Z,37.83
2023-04-07T12:15:00.697Z,37.15
2023-04-07T12:17:33.161Z,37.04
2023-04-07T12:20:07.407Z,36.92
2023-04-07T12:22:40.925Z,36.38
2023-04-07T12:25:13.803Z,36.56
2023-04-07T12:27:47.852Z,36.72
2023-04-07T12:30:23.212Z,36.65
2023-04-07T12:32:56.134Z,36.95
2023-04-07T12:35:28.927Z,36.87
2023-04-07T12:38:03.097Z,35.84
2023-04-07T12:40:36.420Z,35.92
2023-04-07T12:43:11.520Z,36.90
2023-04-07T12:45:47.299Z,36.91
2023-04-07T12:48:20.467Z,36.10
2023-04-07T12:50:53.267Z,36.95
2023-04-07T12:53:26.209Z,35.93
2023-04-07T12:55:59.230Z,36.42
2023-04-07T12:58:33.411Z,36.16
2023-04-07T13:01:07.015Z,35.55
2023-04-07T13:03:39.983Z,35.55
2023-04-07T13:06:13.267Z,34.98
2023-04-07T13:08:46.578Z,35.41
2023-04-07T13:11:19.001Z,35.42
2023-04-07T13:13:55.810Z,35.26
2023-04-07T13:16:29.838Z,35.78
2023-04-07T13:19:02.556Z,35.60
2023-04-07T13:21:46.208Z,36.43
2023-04-07T13:24:22.100Z,35.66
2023-04-07T13:26:54.882Z,35.82
2023-04-07T13:29:29.369Z,36.06
2023-04-07T13:32:06.410Z,35.66
2023-04-07T13:34:40.526Z,35.78
2023-04-07T13:37:13.132Z,35.09
2023-04-07T13:39:46.495Z,35.36
2023-04-07T13:42:21.079Z,35.50
2023-04-07T13:44:55.415Z,35.18
2023-04-07T13:47:30.559Z,36.12
2023-04-07T13:50:04.775Z,36.16
2023-04-07T13:52:37.604Z,35.12
2023-04-07T13:55:10.956Z,34.99
2023-04-07T13:57:44.675Z,34.72
2023-04-07T14:00:19.730Z,35.40
2023-04-07T14:02:53.654Z,35.15
2023-04-07T14:05:26.673Z,34.71
2023-04-07T14:07:59.686Z,35.31
2023-04-07T14:10:33.703Z,35.51
2023-04-07T14:13:07.453Z,35.04
2023-04-07T14:15:41.861Z,34.59
2023-04-07T14:18:14.270Z,34.30
2023-04-07T14:20:47.738Z,34.78
2023-04-07T14:23:30.284Z,35.35
2023-04-07T14:26:11.168Z,34.82
2023-04-07T14:28:43.744Z,35.08
2023-04-07T14:31:18.350Z,35.30
2023-04-07T14:33:51.702Z,35.05
2023-04-07T14:36:25.187Z,34.83
2023-04-07T14:38:58.674Z,34.43
2023-04-07T14:41:31.778Z,35.16
2023-04-07T14:44:04.959Z,34.60
2023-04-07T14:46:39.031Z,35.17
2023-04-07T14:49:13.641Z,34.33
2023-04-07T14:51:46.868Z,34.64
2023-04-07T14:54:19.363Z,34.82
2023-04-07T14:56:52.545Z,34.94
2023-04-07T14:59:25.005Z,35.30
2023-04-07T15:01:59.698Z,35.94
2023-04-07T15:05:04.209Z,35.42
2023-04-07T15:07:37.606Z,34.73
2023-04-07T15:10:11.369Z,34.71
2023-04-07T15:12:47.341Z,35.31
2023-04-07T15:15:20.575Z,35.37
2023-04-07T15:17:57.406Z,35.29
2023-04-07T15:20:31.508Z,35.79
2023-04-07T15:23:03.955Z,35.52
2023-04-07T15:25:38.334Z,35.22
2023-04-07T15:28:11.177Z,36.08
2023-04-07T15:30:46.476Z,35.62
2023-04-07T15:33:20.437Z,35.50
2023-04-07T15:35:53.755Z,35.24
2023-04-07T15:38:26.617Z,35.42
2023-04-07T15:40:59.351Z,35.79
2023-04-07T15:43:31.892Z,36.24
2023-04-07T15:46:04.818Z,36.24
2023-04-07T15:48:39.105Z,35.90
2023-04-07T15:51:11.662Z,36.16
2023-04-07T15:53:44.540Z,35.95
2023-04-07T15:56:17.437Z,36.31
2023-04-07T15:58:50.551Z,35.78
2023-04-07T16:01:24.883Z,36.07
2023-04-07T16:03:59.251Z,35.73
2023-04-07T16:06:31.910Z,35.86
2023-04-07T16:09:04.965Z,35.30
2023-04-07T16:11:37.909Z,35.73
2023-04-07T16:14:10.896Z,35.94
2023-04-07T16:16:44.778Z,36.03
2023-04-07T16:19:19.301Z,36.46
2023-04-07T16:21:52.241Z,36.47
2023-04-07T16:24:25.529Z,36.10
2023-04-07T16:26:58.508Z,36.26
2023-04-07T16:29:32.069Z,36.47
2023-04-07T16:32:05.221Z,36.35
2023-04-07T16:34:40.259Z,36.56
2023-04-07T16:37:13.472Z,36.30
2023-04-07T16:39:46.409Z,36.79
2023-04-07T16:42:19.193Z,36.95
2023-04-07T16:44:52.373Z,36.98
2023-04-07T16:47:26.277Z,36.79
2023-04-07T16:50:00.469Z,36.36
2023-04-07T16:52:33.583Z,36.73
2023-04-07T16:55:07.252Z,36.75
2023-04-07T16:57:39.970Z,36.51
2023-04-07T17:00:14.109Z,36.46
2023-04-07T17:02:47.055Z,36.75
2023-04-07T17:05:22.135Z,36.50
2023-04-07T17:07:56.801Z,36.89
2023-04-07T17:10:30.507Z,36.93
2023-04-07T17:13:03.436Z,36.91
2023-04-07T17:15:38.151Z,37.04
2023-04-07T17:18:11.078Z,37.31
2023-04-07T17:20:46.257Z,37.29
2023-04-07T17:23:19.029Z,37.35
2023-04-07T17:25:51.891Z,37.34
2023-04-07T17:28:29.995Z,37.55
2023-04-07T17:31:03.517Z,37.61
2023-04-07T17:33:36.676Z,37.97
2023-04-07T17:36:11.068Z,38.30
2023-04-07T17:38:45.420Z,38.20
2023-04-07T17:41:19.606Z,38.01
2023-04-07T17:43:52.786Z,38.35
2023-04-07T17:46:26.040Z,38.56
2023-04-07T17:48:59.223Z,38.42
2023-04-07T17:51:34.050Z,38.30
2023-04-07T17:54:07.302Z,38.72
2023-04-07T17:56:40.578Z,38.63
2023-04-07T17:59:15.141Z,38.93
2023-04-07T18:01:47.645Z,38.85
2023-04-07T18:04:20.578Z,39.33
2023-04-07T18:06:55.280Z,39.37
2023-04-07T18:09:28.236Z,39.62
2023-04-07T18:12:02.748Z,39.47
2023-04-07T18:14:35.683Z,39.64
2023-04-07T18:17:08.967Z,39.66
2023-04-07T18:19:41.867Z,39.96
2023-04-07T18:22:16.472Z,39.95
2023-04-07T18:24:51.313Z,40.17
2023-04-07T18:27:25.465Z,40.54
2023-04-07T18:29:58.125Z,40.70
2023-04-07T18:32:31.372Z,40.57
2023-04-07T18:35:08.016Z,40.61
2023-04-07T18:37:44.176Z,40.62
2023-04-07T18:40:17.195Z,40.79
2023-04-07T18:42:50.266Z,40.94
2023-04-07T18:45:23.018Z,41.23
2023-04-07T18:47:56.115Z,41.36
2023-04-07T18:50:28.689Z,41.17
2023-04-07T18:53:03.371Z,41.48
2023-04-07T18:55:36.532Z,41.49
2023-04-07T18:58:09.231Z,41.55
2023-04-07T19:00:41.791Z,41.63
2023-04-07T19:03:15.017Z,41.79
2023-04-07T19:05:47.956Z,41.80
2023-04-07T19:08:22.584Z,41.64
2023-04-07T19:10:55.337Z,42.02
2023-04-07T19:13:28.351Z,42.07
2023-04-07T19:16:01.593Z,42.18
2023-04-07T19:18:34.639Z,42.38
2023-04-07T19:21:08.721Z,42.21
2023-04-07T19:23:43.150Z,42.51
2023-04-07T19:26:16.250Z,42.06
2023-04-07T19:28:49.816Z,42.39
2023-04-07T19:31:23.672Z,42.53
2023-04-07T19:33:56.352Z,42.73
2023-04-07T19:36:29.191Z,42.83
2023-04-07T19:39:04.824Z,42.96
2023-04-07T19:41:38.282Z,42.87
2023-04-07T19:44:13.516Z,42.65
2023-04-07T19:46:51.028Z,42.79
2023-04-07T19:49:27.027Z,43.35
2023-04-07T19:52:01.044Z,43.04
2023-04-07T19:54:35.354Z,42.86
2023-04-07T19:57:08.376Z,43.38
2023-04-07T19:59:41.957Z,43.32
2023-04-07T20:02:15.014Z,42.79
2023-04-07T20:04:47.651Z,43.45
2023-04-07T20:07:20.602Z,43.19
2023-04-07T20:09:55.231Z,43.44
2023-04-07T20:12:28.829Z,43.25
2023-04-07T20:15:01.692Z,43.41
2023-04-07T20:17:37.402Z,43.49
2023-04-07T20:20:11.346Z,43.61
2023-04-07T20:22:44.433Z,42.97
2023-04-07T20:25:18.374Z,43.67
2023-04-07T20:27:51.482Z,43.05
2023-04-07T20:30:24.113Z,43.59
2023-04-07T20:32:57.278Z,43.47
2023-04-07T20:35:29.864Z,43.57
2023-04-07T20:38:03.300Z,43.40
2023-04-07T20:40:37.806Z,43.36
2023-04-07T20:43:11.334Z,43.56
2023-04-07T20:45:44.215Z,43.28
2023-04-07T20:48:18.505Z,43.41
2023-04-07T20:50:51.742Z,43.30
2023-04-07T20:53:25.331Z,43.75
2023-04-07T20:55:59.294Z,43.56
2023-04-07T20:58:32.572Z,43.57
2023-04-07T21:01:04.966Z,43.14
2023-04-07T21:03:37.848Z,43.36
2023-04-07T21:06:11.494Z,43.65
2023-04-07T21:08:44.678Z,43.64
2023-04-07T21:11:18.483Z,43.99
2023-04-07T21:13:51.450Z,43.34
2023-04-07T21:16:24.590Z,44.04
2023-04-07T21:18:58.279Z,43.57
2023-04-07T21:21:31.797Z,43.70
2023-04-07T21:24:04.884Z,43.90
2023-04-07T21:26:38.849Z,43.53
2023-04-07T21:29:11.994Z,44.04
2023-04-07T21:31:44.526Z,44.21
2023-04-07T21:34:17.384Z,43.77
2023-04-07T21:36:50.029Z,43.72
2023-04-07T21:39:23.259Z,45.29
2023-04-07T21:41:57.483Z,45.11
2023-04-07T21:44:30.502Z,46.20
2023-04-07T21:47:03.004Z,46.62
2023-04-07T21:49:36.309Z,46.84
2023-04-07T21:52:09.091Z,47.35
2023-04-07T21:54:42.293Z,47.76
2023-04-07T21:57:16.946Z,48.13
2023-04-07T21:59:49.767Z,48.63
2023-04-07T22:02:22.768Z,48.99
2023-04-07T22:04:55.360Z,49.61
2023-04-07T22:07:28.575Z,49.28
2023-04-07T22:10:01.461Z,49.12
2023-04-07T22:12:36.276Z,49.23
2023-04-07T22:15:11.311Z,49.71
2023-04-07T22:17:44.440Z,50.65
2023-04-07T22:20:17.965Z,50.36
2023-04-07T22:22:51.131Z,50.78
2023-04-07T22:25:23.684Z,51.57
2023-04-07T22:27:58.727Z,51.09
2023-04-07T22:30:31.521Z,51.15
2023-04-07T22:33:05.357Z,50.97
2023-04-07T22:35:38.715Z,51.95
2023-04-07T22:38:13.651Z,52.99
2023-04-07T22:40:46.576Z,52.76
2023-04-07T22:43:20.936Z,53.19
2023-04-07T22:45:53.641Z,53.07
2023-04-07T22:48:28.565Z,53.04
2023-04-07T22:51:01.014Z,52.98
2023-04-07T22:53:33.894Z,53.75
2023-04-07T22:56:07.165Z,53.78
2023-04-07T22:58:41.939Z,54.18
2023-04-07T23:01:14.682Z,54.25
2023-04-07T23:03:47.843Z,53.95
2023-04-07T23:06:21.013Z,54.45
2023-04-07T23:08:53.803Z,54.66
2023-04-07T23:11:26.461Z,54.64
2023-04-07T23:14:05.460Z,54.77
2023-04-07T23:16:37.894Z,55.31
2023-04-07T23:19:16.180Z,55.57
2023-04-07T23:21:49.099Z,55.84
2023-04-07T23:24:21.905Z,55.94
2023-04-07T23:26:54.757Z,55.49
2023-04-07T23:29:29.186Z,55.62
2023-04-07T23:32:01.673Z,56.10
2023-04-07T23:34:34.788Z,56.25
2023-04-07T23:37:07.885Z,56.38
2023-04-07T23:39:40.424Z,56.49
2023-04-07T23:42:15.143Z,56.74
2023-04-07T23:44:49.054Z,57.03
2023-04-07T23:47:22.251Z,56.14
2023-04-07T23:49:54.909Z,56.78
2023-04-07T23:52:28.447Z,56.60
2023-04-07T23:55:00.906Z,56.97
2023-04-07T23:57:33.954Z,56.58
